Time;durP1;ratioP1;P1;durP2;ratioP2;P2;SDS_P1;SDS_P2;PMS_P1;PMS_P2;Temp;Humidity;BMP_temperature;BMP_pressure;BME280_temperature;BME280_humidity;BME280_pressure;Samples;Min_cycle;Max_cycle;Signal;HPM_P1;HPM_P2
2023/03/20 00:02:18;;;;;;;12.75;5.82;;;8.70;99.90;;;;;;4931407;29;20173;-87
2023/03/20 00:04:46;;;;;;;9.48;5.50;;;8.60;99.90;;;;;;4933413;29;20062;-87
2023/03/20 00:07:12;;;;;;;9.70;5.53;;;8.60;99.90;;;;;;4915602;29;20131;-87
2023/03/20 00:09:38;;;;;;;10.73;5.70;;;8.60;99.90;;;;;;4934666;29;20542;-87
2023/03/20 00:12:04;;;;;;;10.95;5.63;;;8.60;99.90;;;;;;4917197;29;20040;-87
2023/03/20 00:14:30;;;;;;;11.98;6.07;;;8.60;99.90;;;;;;4916454;29;20087;-88
2023/03/20 00:16:59;;;;;;;10.93;5.38;;;8.60;99.90;;;;;;4932389;29;20082;-88
2023/03/20 00:19:28;;;;;;;13.10;5.65;;;8.60;99.90;;;;;;4915520;29;20137;-88
2023/03/20 00:21:54;;;;;;;11.88;6.00;;;8.60;99.90;;;;;;4907946;29;20142;-87
2023/03/20 00:24:21;;;;;;;10.10;5.47;;;8.50;99.90;;;;;;4915462;29;20036;-88
2023/03/20 00:26:49;;;;;;;13.02;5.80;;;8.50;99.90;;;;;;4931415;29;20054;-88
2023/03/20 00:29:26;;;;;;;12.93;5.45;;;8.50;99.90;;;;;;4900772;29;20090;-87
2023/03/20 00:31:53;;;;;;;10.65;5.88;;;8.50;99.90;;;;;;4933462;29;20130;-88
2023/03/20 00:34:22;;;;;;;10.48;5.30;;;8.50;99.90;;;;;;4915575;29;20553;-88
2023/03/20 00:36:49;;;;;;;11.48;5.10;;;8.50;99.90;;;;;;4898921;29;20044;-88
2023/03/20 00:39:14;;;;;;;13.07;5.93;;;8.50;99.90;;;;;;4933704;29;20118;-88
2023/03/20 00:41:42;;;;;;;11.23;5.57;;;8.50;99.90;;;;;;4916960;29;20043;-89
2023/03/20 00:44:32;;;;;;;10.50;5.10;;;9.10;99.90;;;;;;4915431;29;20052;-88
2023/03/20 00:47:01;;;;;;;11.95;4.95;;;8.50;99.90;;;;;;4931616;29;20067;-88
2023/03/20 00:49:30;;;;;;;11.10;5.40;;;8.50;99.90;;;;;;4917046;29;20093;-88
2023/03/20 00:51:57;;;;;;;11.00;5.20;;;8.60;99.90;;;;;;4917550;29;20067;-88
2023/03/20 00:54:23;;;;;;;10.20;4.18;;;8.50;99.90;;;;;;4916126;29;20047;-88
2023/03/20 00:56:57;;;;;;;11.45;4.45;;;8.50;99.90;;;;;;4914723;29;20055;-88
2023/03/20 00:59:33;;;;;;;10.65;4.93;;;8.50;99.90;;;;;;4932531;29;20043;-88
2023/03/20 01:02:01;;;;;;;11.25;5.47;;;8.50;99.90;;;;;;4932732;29;20036;-89
2023/03/20 01:04:34;;;;;;;8.27;4.40;;;8.50;99.90;;;;;;4901013;29;20075;-89
2023/03/20 01:07:00;;;;;;;10.13;5.15;;;8.50;99.90;;;;;;4918146;29;20048;-88
2023/03/20 01:09:26;;;;;;;13.73;5.78;;;8.50;99.90;;;;;;4917864;29;20043;-89
2023/03/20 01:11:51;;;;;;;10.40;5.03;;;8.50;99.90;;;;;;4932013;29;20039;-89
2023/03/20 01:14:17;;;;;;;13.43;5.22;;;8.50;99.90;;;;;;4916737;29;20119;-89
2023/03/20 01:16:43;;;;;;;9.82;5.20;;;8.50;99.90;;;;;;4927670;29;20094;-89
2023/03/20 01:19:12;;;;;;;14.95;5.32;;;8.50;99.90;;;;;;4917242;29;20074;-88
2023/03/20 01:21:38;;;;;;;11.82;5.43;;;8.50;99.90;;;;;;4934204;29;20056;-89
2023/03/20 01:24:03;;;;;;;11.13;5.18;;;8.40;99.90;;;;;;4917186;29;20140;-89
2023/03/20 01:26:43;;;;;;;12.75;5.18;;;8.60;99.90;;;;;;4917380;29;20047;-88
2023/03/20 01:29:26;;;;;;;13.05;4.53;;;8.50;99.90;;;;;;4916382;29;20039;-89
2023/03/20 01:31:52;;;;;;;11.95;5.50;;;8.50;99.90;;;;;;4913357;29;20103;-89
2023/03/20 01:34:19;;;;;;;13.23;5.68;;;8.50;99.90;;;;;;4915372;29;20163;-88
2023/03/20 01:36:50;;;;;;;11.80;5.90;;;8.50;99.90;;;;;;4925784;29;20048;-88
2023/03/20 01:39:17;;;;;;;13.35;5.57;;;8.50;99.90;;;;;;4932055;29;20040;-89
2023/03/20 01:41:44;;;;;;;10.93;5.75;;;8.50;99.90;;;;;;4934303;29;20077;-89
2023/03/20 01:44:18;;;;;;;11.27;5.47;;;8.50;99.90;;;;;;4917502;29;20042;-88
2023/03/20 01:46:44;;;;;;;14.15;6.90;;;8.50;99.90;;;;;;4916371;29;20130;-89
2023/03/20 01:49:19;;;;;;;12.13;6.00;;;8.50;99.90;;;;;;4916174;29;20422;-89
2023/03/20 01:51:49;;;;;;;16.42;7.15;;;8.50;99.90;;;;;;4934009;29;20093;-88
2023/03/20 01:54:28;;;;;;;15.23;6.18;;;8.40;99.90;;;;;;4933783;29;20065;-88
2023/03/20 01:57:03;;;;;;;15.35;6.60;;;8.40;99.90;;;;;;4916692;29;20549;-89
2023/03/20 01:59:35;;;;;;;12.10;6.00;;;8.40;99.90;;;;;;4930403;29;20075;-89
2023/03/20 02:02:01;;;;;;;16.25;6.70;;;8.40;99.90;;;;;;4933325;29;20150;-89
2023/03/20 02:04:31;;;;;;;15.40;6.43;;;8.40;99.90;;;;;;4933752;29;20119;-88
2023/03/20 02:06:57;;;;;;;12.32;5.95;;;8.90;99.90;;;;;;4916326;29;20048;-89
2023/03/20 02:09:23;;;;;;;17.65;7.03;;;8.90;99.90;;;;;;4906235;29;20119;-89
2023/03/20 02:11:49;;;;;;;15.30;7.70;;;8.40;99.90;;;;;;4932219;29;20039;-88
2023/03/20 02:14:15;;;;;;;17.13;7.22;;;8.50;99.90;;;;;;4900152;29;20044;-89
2023/03/20 02:16:41;;;;;;;18.67;6.53;;;8.40;99.90;;;;;;4912812;29;20118;-89
2023/03/20 02:19:14;;;;;;;13.73;5.78;;;8.40;99.90;;;;;;4933281;29;20039;-89
2023/03/20 02:21:43;;;;;;;16.52;6.90;;;8.50;99.90;;;;;;4933673;29;20055;-89
2023/03/20 02:24:08;;;;;;;13.07;5.97;;;8.40;99.90;;;;;;4927180;29;20091;-90
2023/03/20 02:26:50;;;;;;;14.48;6.00;;;8.40;99.90;;;;;;4914869;29;20044;-90
2023/03/20 02:29:44;;;;;;;14.60;6.35;;;8.40;99.90;;;;;;4931727;29;20051;-89
2023/03/20 02:32:17;;;;;;;18.83;6.93;;;8.40;99.90;;;;;;4915763;29;20042;-90
2023/03/20 02:35:01;;;;;;;16.33;6.97;;;8.40;99.90;;;;;;4931724;29;20546;-88
2023/03/20 02:37:30;;;;;;;15.48;6.38;;;8.40;99.90;;;;;;4933013;29;20040;-89
2023/03/20 02:40:02;;;;;;;14.63;6.07;;;8.30;99.90;;;;;;4931612;29;20079;-88
2023/03/20 02:42:45;;;;;;;13.43;6.28;;;8.40;99.90;;;;;;4907376;29;20797;-88
2023/03/20 02:45:27;;;;;;;16.75;6.70;;;8.70;99.90;;;;;;4929440;29;20047;-89
2023/03/20 02:48:20;;;;;;;16.05;6.03;;;8.40;99.90;;;;;;4931646;29;20050;-88
2023/03/20 02:51:08;;;;;;;15.25;6.13;;;8.40;99.90;;;;;;4926187;29;20103;-89
2023/03/20 02:53:48;;;;;;;15.48;6.85;;;8.40;99.90;;;;;;4926646;29;20066;-89
2023/03/20 02:56:36;;;;;;;18.88;7.28;;;8.80;99.90;;;;;;4914826;29;20044;-89
2023/03/20 02:59:08;;;;;;;16.23;6.97;;;8.40;99.90;;;;;;4930304;29;20048;-88
2023/03/20 03:01:40;;;;;;;17.92;7.90;;;8.40;99.90;;;;;;4913397;29;20047;-89
2023/03/20 03:04:11;;;;;;;16.13;8.00;;;8.40;99.90;;;;;;4930009;29;20140;-89
2023/03/20 03:06:41;;;;;;;14.45;6.35;;;9.00;99.90;;;;;;4915813;29;20048;-88
2023/03/20 03:09:21;;;;;;;16.45;8.05;;;8.80;99.90;;;;;;4932404;29;20406;-89
2023/03/20 03:11:59;;;;;;;14.45;6.68;;;8.40;99.90;;;;;;4932787;29;20118;-88
2023/03/20 03:14:46;;;;;;;27.35;9.65;;;8.40;99.90;;;;;;4927664;29;20094;-88
2023/03/20 03:17:14;;;;;;;22.63;8.35;;;8.40;99.90;;;;;;4915029;29;20063;-89
2023/03/20 03:19:46;;;;;;;19.85;9.10;;;8.40;99.90;;;;;;4908998;29;20498;-89
2023/03/20 03:22:13;;;;;;;17.23;7.78;;;8.40;99.90;;;;;;4909839;29;20048;-89
2023/03/20 03:24:47;;;;;;;16.48;7.95;;;8.30;99.90;;;;;;4931932;29;20111;-88
2023/03/20 03:27:39;;;;;;;19.98;8.02;;;8.40;99.90;;;;;;4914409;29;20050;-88
2023/03/20 03:30:14;;;;;;;20.10;9.05;;;8.40;99.90;;;;;;4931048;29;20046;-89
2023/03/20 03:32:43;;;;;;;21.50;8.73;;;8.40;99.90;;;;;;4913403;29;20040;-89
2023/03/20 03:35:15;;;;;;;16.42;8.23;;;8.30;99.90;;;;;;4931515;29;20103;-89
2023/03/20 03:38:01;;;;;;;19.00;9.48;;;8.30;99.90;;;;;;4910645;29;20046;-89
2023/03/20 03:40:35;;;;;;;18.20;8.65;;;8.30;99.90;;;;;;4929426;29;20432;-89
2023/03/20 03:43:17;;;;;;;22.58;8.68;;;8.30;99.90;;;;;;4929614;29;20143;-89
2023/03/20 03:45:59;;;;;;;17.88;8.82;;;8.30;99.90;;;;;;4931124;29;20046;-89
2023/03/20 03:48:31;;;;;;;18.50;9.57;;;8.30;99.90;;;;;;4925499;29;20043;-89
2023/03/20 03:51:02;;;;;;;19.25;9.18;;;8.30;99.90;;;;;;4916573;29;20078;-89
2023/03/20 03:53:39;;;;;;;15.32;8.07;;;8.30;99.90;;;;;;4915425;29;20071;-89
2023/03/20 03:56:10;;;;;;;15.90;8.20;;;8.30;99.90;;;;;;4915625;29;20075;-90
2023/03/20 03:58:46;;;;;;;20.30;8.85;;;8.30;99.90;;;;;;4933160;29;20040;-91
2023/03/20 04:01:15;;;;;;;17.85;8.73;;;8.30;99.90;;;;;;4925210;29;20067;-90
2023/03/20 04:03:55;;;;;;;19.42;8.55;;;8.30;99.90;;;;;;4926669;29;20130;-90
2023/03/20 04:06:20;;;;;;;19.38;9.02;;;8.30;99.90;;;;;;4938859;29;20068;-90
2023/03/20 04:08:46;;;;;;;18.15;8.05;;;8.30;99.90;;;;;;4919263;29;20463;-89
2023/03/20 04:11:17;;;;;;;18.17;8.05;;;8.30;99.90;;;;;;4914753;29;20050;-91
2023/03/20 04:13:46;;;;;;;15.88;7.65;;;8.30;99.90;;;;;;4935548;29;20080;-90
2023/03/20 04:16:13;;;;;;;15.65;8.38;;;8.30;99.90;;;;;;4915611;29;20039;-90
2023/03/20 04:18:39;;;;;;;15.40;7.88;;;8.30;99.90;;;;;;4938016;29;20043;-90
2023/03/20 04:21:05;;;;;;;17.20;8.40;;;8.30;99.90;;;;;;4890396;29;20041;-88
2023/03/20 04:23:31;;;;;;;15.80;7.53;;;8.30;99.90;;;;;;4932527;29;20044;-91
2023/03/20 04:25:58;;;;;;;19.77;9.15;;;8.30;99.90;;;;;;4931294;29;20044;-90
2023/03/20 04:28:23;;;;;;;19.20;8.35;;;8.30;99.90;;;;;;4931278;29;20043;-90
2023/03/20 04:30:57;;;;;;;15.45;7.22;;;8.30;99.90;;;;;;4915502;29;20565;-90
2023/03/20 04:33:24;;;;;;;17.45;7.97;;;8.30;99.90;;;;;;4922888;29;20569;-90
2023/03/20 04:35:50;;;;;;;19.10;8.20;;;8.30;99.90;;;;;;4915356;29;20074;-90
2023/03/20 04:38:17;;;;;;;20.63;7.60;;;8.30;99.90;;;;;;4933832;29;20447;-90
2023/03/20 04:40:43;;;;;;;16.30;8.07;;;8.30;99.90;;;;;;4918335;29;20051;-90
2023/03/20 04:43:09;;;;;;;14.38;7.38;;;8.30;99.90;;;;;;4934816;29;20040;-90
2023/03/20 04:45:35;;;;;;;14.77;7.63;;;8.20;99.90;;;;;;4920680;29;20039;-90
2023/03/20 04:48:01;;;;;;;16.40;6.50;;;8.20;99.90;;;;;;4917816;29;20407;-91
2023/03/20 04:50:27;;;;;;;17.23;7.28;;;8.30;99.90;;;;;;4908003;29;20043;-91
2023/03/20 04:52:52;;;;;;;17.25;8.23;;;8.20;99.90;;;;;;4917934;29;20059;-90
2023/03/20 04:55:18;;;;;;;15.63;7.57;;;8.30;99.90;;;;;;4917076;29;20254;-91
2023/03/20 04:57:44;;;;;;;14.05;6.68;;;8.20;99.90;;;;;;4934613;29;20533;-91
2023/03/20 05:00:10;;;;;;;14.07;6.65;;;8.20;99.90;;;;;;4915866;29;20082;-91
2023/03/20 05:02:36;;;;;;;14.32;6.38;;;8.30;99.90;;;;;;4918059;29;20040;-91
2023/03/20 05:05:01;;;;;;;14.07;6.55;;;8.20;99.90;;;;;;4916379;29;20537;-91
2023/03/20 05:07:27;;;;;;;14.80;7.03;;;8.20;99.90;;;;;;4917358;29;20039;-91
2023/03/20 05:09:53;;;;;;;14.30;6.05;;;8.30;99.90;;;;;;4906561;29;20402;-91
2023/03/20 05:12:18;;;;;;;13.02;6.13;;;8.20;99.90;;;;;;4933762;29;20106;-91
2023/03/20 05:14:44;;;;;;;14.00;6.80;;;8.20;99.90;;;;;;4932488;29;20118;-91
2023/03/20 05:17:10;;;;;;;16.60;7.18;;;8.20;99.90;;;;;;4918014;29;20094;-91
2023/03/20 05:19:35;;;;;;;12.07;5.90;;;8.20;99.90;;;;;;4917129;29;20075;-91
2023/03/20 05:22:01;;;;;;;13.57;6.68;;;8.20;99.90;;;;;;4921652;29;20111;-92
2023/03/20 05:24:27;;;;;;;15.95;6.95;;;8.40;99.90;;;;;;4936263;29;20047;-92
2023/03/20 05:26:54;;;;;;;13.63;6.53;;;8.20;99.90;;;;;;4912944;29;20055;-91
2023/03/20 05:29:20;;;;;;;12.45;5.90;;;8.20;99.90;;;;;;4906389;29;20047;-91
2023/03/20 05:31:45;;;;;;;14.55;6.32;;;8.20;99.90;;;;;;4935048;29;20514;-91
2023/03/20 05:34:11;;;;;;;14.82;5.97;;;8.20;99.90;;;;;;4915310;29;20036;-91
2023/03/20 05:36:37;;;;;;;13.60;6.90;;;8.20;99.90;;;;;;4930408;29;20114;-90
2023/03/20 05:39:03;;;;;;;14.85;6.25;;;8.20;99.90;;;;;;4933999;29;20050;-92
2023/03/20 05:41:29;;;;;;;12.77;6.00;;;8.20;99.90;;;;;;4936448;28;20068;-92
2023/03/20 05:43:54;;;;;;;15.60;6.78;;;8.20;99.90;;;;;;4938868;29;20042;-92
2023/03/20 05:46:21;;;;;;;13.75;6.05;;;8.20;99.90;;;;;;4910522;29;20114;-92
2023/03/20 05:48:47;;;;;;;16.52;7.07;;;8.20;99.90;;;;;;4917257;29;20039;-92
2023/03/20 05:51:13;;;;;;;17.92;7.25;;;8.20;99.90;;;;;;4907146;29;20047;-91
2023/03/20 05:53:38;;;;;;;18.05;7.20;;;8.50;99.90;;;;;;4916459;29;20071;-92
2023/03/20 05:56:05;;;;;;;15.43;8.30;;;8.10;99.90;;;;;;4916352;29;20091;-91
2023/03/20 05:58:31;;;;;;;14.27;8.05;;;8.10;99.90;;;;;;4918820;29;20059;-91
2023/03/20 06:00:57;;;;;;;12.73;7.10;;;8.20;99.90;;;;;;4919978;29;20035;-96
2023/03/20 06:03:23;;;;;;;15.95;8.43;;;8.10;99.90;;;;;;4914289;29;20047;-89
2023/03/20 06:05:49;;;;;;;15.75;7.65;;;8.10;99.90;;;;;;4915509;29;20130;-91
2023/03/20 06:08:15;;;;;;;14.23;8.07;;;8.10;99.90;;;;;;4917020;29;20454;-88
2023/03/20 06:10:40;;;;;;;13.77;7.65;;;8.10;99.90;;;;;;4932517;29;20047;-94
2023/03/20 06:13:06;;;;;;;16.02;7.75;;;8.10;99.90;;;;;;4918749;29;20068;-89
2023/03/20 06:15:32;;;;;;;16.77;8.70;;;8.10;99.90;;;;;;4935909;29;20043;-94
2023/03/20 06:17:58;;;;;;;18.15;9.07;;;8.10;99.90;;;;;;4917427;29;20043;-91
2023/03/20 06:20:25;;;;;;;18.42;8.93;;;8.10;99.90;;;;;;4934436;29;20040;-91
2023/03/20 06:22:51;;;;;;;16.42;7.93;;;8.20;99.90;;;;;;4932561;29;20097;-91
2023/03/20 06:25:17;;;;;;;16.73;8.68;;;8.20;99.90;;;;;;4936058;29;20067;-91
2023/03/20 06:27:45;;;;;;;16.38;8.45;;;8.20;99.90;;;;;;4916959;29;20098;-91
2023/03/20 06:30:11;;;;;;;16.58;8.23;;;8.20;99.90;;;;;;4930805;29;20115;-94
2023/03/20 06:32:37;;;;;;;19.40;8.93;;;8.20;99.90;;;;;;4938028;29;20096;-92
2023/03/20 06:35:04;;;;;;;17.38;8.48;;;8.20;99.90;;;;;;4916309;29;20050;-92
2023/03/20 06:37:30;;;;;;;17.38;8.73;;;8.20;99.90;;;;;;4916200;29;20051;-87
2023/03/20 06:39:56;;;;;;;18.58;8.60;;;8.20;99.90;;;;;;4923122;29;20403;-95
2023/03/20 06:42:22;;;;;;;14.82;8.23;;;8.20;99.90;;;;;;4917986;29;20538;-95
2023/03/20 06:44:47;;;;;;;15.75;8.75;;;8.20;99.90;;;;;;4917377;29;20418;-94
2023/03/20 06:47:13;;;;;;;16.08;8.25;;;8.70;99.90;;;;;;4932600;29;20036;-92
2023/03/20 06:49:39;;;;;;;18.05;9.23;;;8.70;99.90;;;;;;4942573;29;20088;-94
2023/03/20 06:52:05;;;;;;;17.17;8.50;;;8.20;99.90;;;;;;4902058;29;20435;-94
2023/03/20 06:54:31;;;;;;;14.98;8.02;;;8.30;99.90;;;;;;4915965;29;20062;-95
2023/03/20 06:56:56;;;;;;;15.98;8.25;;;8.30;99.90;;;;;;4951467;29;20486;-94
2023/03/20 06:59:22;;;;;;;18.58;8.80;;;8.30;99.90;;;;;;4933534;29;20048;-94
2023/03/20 07:01:48;;;;;;;17.77;8.80;;;8.30;99.90;;;;;;4931218;29;20044;-90
2023/03/20 07:04:13;;;;;;;13.63;8.00;;;8.30;99.90;;;;;;4914965;29;20498;-90
2023/03/20 07:06:39;;;;;;;16.25;7.88;;;8.30;99.90;;;;;;4932434;29;20054;-88
2023/03/20 07:09:06;;;;;;;17.35;7.93;;;8.40;99.90;;;;;;4932551;29;20398;-87
2023/03/20 07:11:33;;;;;;;15.65;8.07;;;8.40;99.90;;;;;;4932920;29;20123;-88
2023/03/20 07:14:00;;;;;;;15.80;8.23;;;8.40;99.90;;;;;;4917128;29;20083;-94
2023/03/20 07:16:26;;;;;;;15.52;8.23;;;8.40;99.90;;;;;;4915714;29;20035;-96
2023/03/20 07:18:52;;;;;;;16.50;7.75;;;8.40;99.90;;;;;;4927778;29;20032;-93
2023/03/20 07:21:21;;;;;;;16.95;8.63;;;8.40;99.90;;;;;;4944845;29;20480;-93
2023/03/20 07:23:50;;;;;;;16.23;8.63;;;8.40;99.90;;;;;;5005093;23;20055;-93
2023/03/20 07:32:23;;;;;;;17.27;8.07;;;8.50;99.90;;;;;;5418290;23;20107;-96
2023/03/20 07:34:52;;;;;;;18.10;8.82;;;8.50;99.90;;;;;;5592293;23;20055;-96
2023/03/20 07:37:17;;;;;;;16.75;8.25;;;8.40;99.90;;;;;;4928164;29;20068;-88
2023/03/20 07:39:43;;;;;;;17.15;8.27;;;8.60;99.90;;;;;;4934551;29;20566;-86
2023/03/20 07:42:09;;;;;;;17.05;8.70;;;8.60;99.90;;;;;;4920136;29;20411;-86
2023/03/20 07:44:35;;;;;;;20.00;8.90;;;8.70;99.90;;;;;;4923027;29;20102;-86
2023/03/20 07:47:00;;;;;;;17.50;8.52;;;8.70;99.90;;;;;;4947555;29;20569;-86
2023/03/20 07:49:26;;;;;;;22.42;9.25;;;9.20;99.90;;;;;;4939203;29;20115;-86
2023/03/20 07:51:55;;;;;;;18.02;8.80;;;8.80;99.90;;;;;;4932335;29;20044;-87
2023/03/20 07:54:21;;;;;;;14.35;8.07;;;8.90;99.90;;;;;;4933606;29;20114;-89
2023/03/20 07:56:47;;;;;;;16.40;9.05;;;8.90;99.90;;;;;;4929939;29;20127;-87
2023/03/20 07:59:13;;;;;;;18.50;9.27;;;8.90;99.90;;;;;;4937624;29;20144;-88
2023/03/20 08:01:39;;;;;;;16.73;8.93;;;8.90;99.90;;;;;;4928331;29;20410;-87
2023/03/20 08:04:05;;;;;;;18.13;8.48;;;8.90;99.90;;;;;;4942467;29;20057;-86
2023/03/20 08:06:30;;;;;;;21.25;9.50;;;8.90;99.90;;;;;;4929101;29;20043;-86
2023/03/20 08:08:56;;;;;;;17.13;8.98;;;8.90;99.90;;;;;;4940357;29;20119;-86
2023/03/20 08:11:22;;;;;;;17.95;8.68;;;8.90;99.90;;;;;;4941806;29;20411;-86
2023/03/20 08:13:48;;;;;;;16.85;8.95;;;9.00;99.90;;;;;;4937985;29;20036;-89
2023/03/20 08:16:13;;;;;;;17.85;9.25;;;9.10;99.90;;;;;;4924339;29;20051;-92
2023/03/20 08:18:39;;;;;;;17.95;9.48;;;9.10;99.90;;;;;;4935304;29;20574;-88
2023/03/20 08:21:06;;;;;;;18.20;8.60;;;9.10;99.90;;;;;;4924484;29;20048;-87
2023/03/20 08:23:32;;;;;;;23.40;9.77;;;9.20;99.90;;;;;;4912059;29;20079;-87
2023/03/20 08:25:58;;;;;;;18.33;8.73;;;9.20;99.90;;;;;;4918287;29;20044;-87
2023/03/20 08:28:23;;;;;;;17.35;8.32;;;9.30;99.90;;;;;;4927079;29;20078;-87
2023/03/20 08:30:50;;;;;;;15.90;8.80;;;9.30;99.90;;;;;;4944175;29;20039;-87
2023/03/20 08:33:17;;;;;;;21.08;8.88;;;9.30;99.90;;;;;;4946367;29;20043;-87
2023/03/20 08:35:43;;;;;;;18.50;8.93;;;9.40;99.90;;;;;;4936020;29;20062;-87
2023/03/20 08:38:12;;;;;;;18.60;8.88;;;9.50;99.90;;;;;;4927066;29;20058;-87
2023/03/20 08:40:47;;;;;;;17.23;8.27;;;10.50;99.90;;;;;;4930909;29;20058;-87
2023/03/20 08:43:12;;;;;;;19.02;9.60;;;9.60;99.90;;;;;;4941184;29;20042;-87
2023/03/20 08:45:38;;;;;;;18.50;8.73;;;9.60;99.90;;;;;;4923584;29;20056;-86
2023/03/20 08:48:04;;;;;;;18.50;9.10;;;9.60;99.90;;;;;;4941306;29;20039;-88
2023/03/20 08:50:30;;;;;;;17.80;9.65;;;9.60;99.90;;;;;;4923025;29;20051;-88
2023/03/20 08:52:56;;;;;;;21.73;8.77;;;10.10;99.90;;;;;;4920829;29;20044;-89
2023/03/20 08:55:21;;;;;;;20.08;8.75;;;9.60;99.90;;;;;;4917378;29;20045;-87
2023/03/20 08:57:47;;;;;;;17.27;9.23;;;9.70;99.90;;;;;;4930117;29;20066;-88
2023/03/20 09:00:14;;;;;;;16.52;9.35;;;9.70;99.90;;;;;;4933864;29;20055;-89
2023/03/20 09:02:43;;;;;;;18.60;8.57;;;9.80;99.90;;;;;;4920199;29;20329;-89
2023/03/20 09:05:10;;;;;;;17.38;9.32;;;9.80;99.90;;;;;;4933006;29;20110;-89
2023/03/20 09:07:35;;;;;;;18.40;9.43;;;9.90;99.90;;;;;;4929916;29;20122;-89
2023/03/20 09:10:02;;;;;;;15.85;8.32;;;10.40;99.90;;;;;;4921612;29;20118;-89
2023/03/20 09:12:30;;;;;;;17.75;8.55;;;9.90;99.90;;;;;;4919203;29;20034;-88
2023/03/20 09:14:56;;;;;;;16.50;9.15;;;10.00;99.90;;;;;;4924019;29;20111;-89
2023/03/20 09:17:21;;;;;;;19.05;9.60;;;10.00;99.90;;;;;;4923812;29;21460;-89
2023/03/20 09:19:47;;;;;;;16.20;7.85;;;11.10;99.90;;;;;;4926306;29;20406;-88
2023/03/20 09:22:16;;;;;;;15.40;7.28;;;10.10;99.90;;;;;;4940343;29;20364;-89
2023/03/20 09:24:43;;;;;;;17.15;7.93;;;10.10;99.90;;;;;;4940465;29;20116;-89
2023/03/20 09:27:08;;;;;;;21.60;8.68;;;10.20;99.90;;;;;;4941278;29;20074;-88
2023/03/20 09:29:34;;;;;;;16.55;8.63;;;10.30;99.90;;;;;;4923854;29;20075;-87
2023/03/20 09:32:00;;;;;;;16.60;8.77;;;10.40;99.90;;;;;;4924941;29;20036;-86
2023/03/20 09:34:26;;;;;;;14.23;8.05;;;11.00;99.90;;;;;;4940369;29;20061;-87
2023/03/20 09:36:52;;;;;;;16.83;7.57;;;10.50;99.90;;;;;;4919063;29;20059;-86
2023/03/20 09:39:17;;;;;;;19.65;8.90;;;10.70;99.90;;;;;;4914807;29;20078;-86
2023/03/20 09:41:53;;;;;;;15.80;8.18;;;10.80;99.90;;;;;;4918887;29;20059;-86
2023/03/20 09:44:37;;;;;;;20.38;8.30;;;10.90;99.90;;;;;;4923999;29;20056;-86
2023/03/20 09:47:12;;;;;;;12.13;6.97;;;11.00;99.90;;;;;;4913147;29;20044;-86
2023/03/20 09:50:02;;;;;;;18.05;8.27;;;11.00;99.90;;;;;;4935993;29;20055;-86
2023/03/20 09:52:42;;;;;;;14.65;7.78;;;11.00;99.90;;;;;;4925039;29;20050;-87
2023/03/20 09:55:22;;;;;;;12.27;7.50;;;11.00;99.90;;;;;;4932558;29;20178;-86
2023/03/20 09:58:22;;;;;;;16.55;8.00;;;10.90;99.90;;;;;;4939856;29;20039;-86
2023/03/20 10:00:47;;;;;;;19.38;7.63;;;10.90;99.90;;;;;;4930644;29;20047;-86
2023/03/20 10:03:16;;;;;;;12.18;7.05;;;10.90;99.90;;;;;;4922740;29;20046;-86
2023/03/20 10:05:48;;;;;;;16.85;7.80;;;10.90;99.90;;;;;;4930156;29;20486;-86
2023/03/20 10:08:17;;;;;;;15.10;7.57;;;11.00;99.90;;;;;;4915809;29;20047;-86
2023/03/20 10:10:55;;;;;;;17.48;7.57;;;11.00;99.90;;;;;;4925591;29;20053;-86
2023/03/20 10:13:36;;;;;;;15.85;7.18;;;11.00;99.90;;;;;;4936643;29;20099;-86
2023/03/20 10:16:26;;;;;;;15.52;7.53;;;11.10;99.90;;;;;;4943209;29;20035;-87
2023/03/20 10:19:06;;;;;;;13.57;7.22;;;11.10;99.90;;;;;;4935054;29;20053;-86
2023/03/20 10:21:43;;;;;;;16.50;8.07;;;11.10;99.90;;;;;;4920189;29;20044;-87
2023/03/20 10:24:41;;;;;;;20.15;8.57;;;11.20;99.90;;;;;;4915358;29;20094;-85
2023/03/20 10:27:43;;;;;;;15.15;7.90;;;11.20;99.90;;;;;;4928099;29;20177;-86
2023/03/20 10:30:32;;;;;;;17.92;7.47;;;11.20;99.90;;;;;;4917801;29;20087;-86
2023/03/20 10:33:23;;;;;;;16.00;8.30;;;11.20;99.90;;;;;;4939659;28;20186;-86
2023/03/20 10:35:55;;;;;;;18.45;8.40;;;11.20;99.90;;;;;;4915942;29;20060;-84
2023/03/20 10:38:25;;;;;;;17.55;9.07;;;11.10;99.90;;;;;;4936499;29;20553;-86
2023/03/20 10:40:55;;;;;;;18.13;8.65;;;11.10;99.90;;;;;;4922013;29;20047;-87
2023/03/20 10:43:32;;;;;;;15.98;8.45;;;11.30;99.90;;;;;;4916806;29;20031;-87
2023/03/20 10:46:08;;;;;;;19.65;9.02;;;10.90;99.90;;;;;;4926930;29;20031;-87
2023/03/20 10:49:03;;;;;;;16.17;8.57;;;10.90;99.90;;;;;;4903792;29;20048;-90
2023/03/20 10:51:40;;;;;;;;;;;10.90;99.90;;;;;;4924256;29;20091;-90
2023/03/20 10:54:20;;;;;;;17.70;9.23;;;10.80;99.90;;;;;;4916285;29;19923;-90
2023/03/20 10:56:54;;;;;;;19.48;8.88;;;10.70;99.90;;;;;;4909089;29;20039;-90
2023/03/20 10:59:27;;;;;;;18.92;10.00;;;11.20;99.90;;;;;;4926188;29;20483;-90
2023/03/20 11:01:54;;;;;;;14.88;8.40;;;10.80;99.90;;;;;;4918031;29;20511;-90
2023/03/20 11:04:20;;;;;;;16.55;8.23;;;10.90;99.90;;;;;;4922504;29;20541;-91
2023/03/20 11:07:10;;;;;;;16.50;8.85;;;10.90;99.90;;;;;;4924471;29;20126;-90
2023/03/20 11:09:37;;;;;;;15.68;8.60;;;11.00;99.90;;;;;;4924727;29;20075;-95
2023/03/20 11:12:03;;;;;;;16.88;8.70;;;11.10;99.90;;;;;;4934823;29;20043;-92
2023/03/20 11:14:38;;;;;;;17.73;8.85;;;11.00;99.90;;;;;;4942694;29;20043;-91
2023/03/20 11:17:05;;;;;;;18.45;8.40;;;11.10;99.90;;;;;;4918611;29;20475;-93
2023/03/20 11:19:36;;;;;;;12.45;6.82;;;11.30;99.90;;;;;;4907756;29;20039;-94
2023/03/20 11:22:20;;;;;;;12.80;6.90;;;11.10;99.90;;;;;;4939735;29;20039;-94
2023/03/20 11:24:51;;;;;;;11.95;6.93;;;11.00;99.90;;;;;;4940811;29;20058;-94
2023/03/20 11:27:23;;;;;;;15.98;6.90;;;10.90;99.90;;;;;;4944305;29;20050;-93
2023/03/20 11:29:51;;;;;;;11.35;6.93;;;10.90;99.90;;;;;;4931559;29;20097;-93
2023/03/20 11:32:28;;;;;;;13.18;6.60;;;11.00;99.90;;;;;;4911486;29;20051;-94
2023/03/20 11:35:00;;;;;;;13.48;6.60;;;10.80;99.90;;;;;;4925900;29;20517;-94
2023/03/20 11:37:33;;;;;;;11.70;4.80;;;10.80;99.90;;;;;;4918836;29;20040;-95
2023/03/20 11:40:13;;;;;;;9.57;4.72;;;10.90;99.90;;;;;;4938258;29;20042;-93
2023/03/20 11:42:38;;;;;;;11.77;5.38;;;10.80;99.90;;;;;;4930781;29;20041;-95
2023/03/20 11:45:15;;;;;;;10.93;4.82;;;10.70;99.90;;;;;;4921832;29;20027;-96
2023/03/20 11:47:42;;;;;;;11.15;5.88;;;10.70;99.90;;;;;;4939237;29;20098;-96
2023/03/20 11:50:32;;;;;;;11.27;4.82;;;10.60;99.90;;;;;;4927615;29;20494;-94
2023/03/20 11:53:16;;;;;;;11.77;5.95;;;11.20;99.90;;;;;;4946612;29;20043;-93
2023/03/20 11:55:44;;;;;;;16.17;7.35;;;10.50;99.90;;;;;;4938119;29;20043;-96
2023/03/20 11:58:15;;;;;;;14.05;6.70;;;10.40;99.90;;;;;;4929358;29;20043;-94
2023/03/20 12:00:41;;;;;;;15.82;6.72;;;10.40;99.90;;;;;;4921351;29;20036;-94
2023/03/20 12:03:41;;;;;;;13.57;5.97;;;10.60;99.90;;;;;;4928543;29;20051;-94
2023/03/20 12:06:19;;;;;;;15.23;6.30;;;10.30;99.90;;;;;;4987027;23;20095;-93
2023/03/20 12:09:16;;;;;;;13.70;6.00;;;11.50;99.90;;;;;;4980352;23;20063;-96
2023/03/20 12:11:53;;;;;;;14.18;6.05;;;9.50;99.90;;;;;;4924135;29;20063;-95
2023/03/20 12:14:25;;;;;;;12.40;5.68;;;9.60;99.90;;;;;;4927366;29;20111;-95
2023/03/20 12:17:00;;;;;;;14.82;5.63;;;11.30;99.90;;;;;;4908640;29;20059;-96
2023/03/20 12:19:29;;;;;;;11.73;5.60;;;10.20;99.90;;;;;;4902348;29;20126;-95
2023/03/20 12:22:11;;;;;;;11.73;6.68;;;10.20;99.90;;;;;;4902463;29;20040;-96
2023/03/20 12:25:08;;;;;;;12.48;5.55;;;10.70;99.90;;;;;;4908045;29;20131;-91
2023/03/20 12:27:44;;;;;;;11.05;5.82;;;10.10;99.90;;;;;;4928328;29;20616;-96
2023/03/20 12:30:30;;;;;;;8.60;4.35;;;10.50;99.90;;;;;;4916946;29;20080;-96
2023/03/20 12:33:05;;;;;;;11.20;4.80;;;10.20;99.90;;;;;;4896191;29;20040;-96
2023/03/20 12:35:39;;;;;;;8.05;4.15;;;10.10;99.90;;;;;;4909106;29;20040;-96
2023/03/20 12:38:25;;;;;;;8.97;3.80;;;10.20;99.90;;;;;;4912513;29;20028;-96
2023/03/20 12:40:56;;;;;;;10.30;4.38;;;10.20;99.90;;;;;;4915172;29;20047;-96
2023/03/20 12:43:26;;;;;;;7.78;3.70;;;11.10;99.90;;;;;;4909208;29;20043;-95
2023/03/20 12:46:15;;;;;;;8.90;3.58;;;10.20;99.90;;;;;;4926076;29;20065;-96
2023/03/20 12:48:54;;;;;;;9.20;3.05;;;10.30;99.90;;;;;;4897074;29;20040;-96
2023/03/20 12:51:23;;;;;;;10.57;3.92;;;11.20;99.90;;;;;;4914339;29;20036;-95
2023/03/20 12:54:08;;;;;;;6.75;2.83;;;10.40;99.90;;;;;;4911078;29;20036;-96
2023/03/20 12:56:52;;;;;;;;;;;10.40;99.90;;;;;;4949668;29;20039;-96
2023/03/20 12:59:28;;;;;;;9.88;2.53;;;10.30;99.90;;;;;;4963646;23;19930;-96
2023/03/20 13:02:00;;;;;;;10.23;3.95;;;11.30;99.90;;;;;;4912213;29;20077;-92
2023/03/20 13:04:50;;;;;;;9.35;3.50;;;10.20;99.90;;;;;;4923192;29;20076;-95
2023/03/20 13:07:24;;;;;;;9.13;4.22;;;10.20;99.90;;;;;;4916281;29;20048;-95
2023/03/20 13:10:07;;;;;;;8.07;3.85;;;11.30;99.90;;;;;;4893879;29;20045;-96
2023/03/20 13:15:48;;;;;;;7.35;3.03;;;10.20;99.90;;;;;;5006086;23;20064;-96